sensor_id;sensor_type;location;lat;lon;timestamp;pressure;altitude;pressure_sealevel;temperature;humidity
39265;BME280;42646;51.910;7.724;2022-12-18T00:01:14;102329.19;;;-9.96;99.79
39265;BME280;42646;51.910;7.724;2022-12-18T00:03:42;102330.84;;;-9.98;99.90
39265;BME280;42646;51.910;7.724;2022-12-18T00:06:13;102332.53;;;-10.00;99.98
39265;BME280;42646;51.910;7.724;2022-12-18T00:08:41;102334.19;;;-10.02;99.91
39265;BME280;42646;51.910;7.724;2022-12-18T00:11:10;102331.56;;;-10.03;99.92
39265;BME280;42646;51.910;7.724;2022-12-18T00:13:38;102328.09;;;-10.07;99.81
39265;BME280;42646;51.910;7.724;2022-12-18T00:16:07;102329.72;;;-10.09;100.00
39265;BME280;42646;51.910;7.724;2022-12-18T00:18:36;102338.28;;;-10.10;100.00
39265;BME280;42646;51.910;7.724;2022-12-18T00:21:05;102334.84;;;-10.12;99.76
39265;BME280;42646;51.910;7.724;2022-12-18T00:23:34;102343.34;;;-10.14;99.67
39265;BME280;42646;51.910;7.724;2022-12-18T00:26:04;102343.31;;;-10.16;99.69
39265;BME280;42646;51.910;7.724;2022-12-18T00:28:34;102332.97;;;-10.19;99.48
39265;BME280;42646;51.910;7.724;2022-12-18T00:31:01;102338.91;;;-10.22;99.69
39265;BME280;42646;51.910;7.724;2022-12-18T00:33:29;102341.47;;;-10.25;99.64
39265;BME280;42646;51.910;7.724;2022-12-18T00:36:00;102338.78;;;-10.28;99.73
39265;BME280;42646;51.910;7.724;2022-12-18T00:38:27;102327.59;;;-10.31;99.34
39265;BME280;42646;51.910;7.724;2022-12-18T00:40:55;102330.09;;;-10.33;99.27
39265;BME280;42646;51.910;7.724;2022-12-18T00:43:22;102337.78;;;-10.34;99.22
39265;BME280;42646;51.910;7.724;2022-12-18T00:45:50;102339.47;;;-10.36;99.15
39265;BME280;42646;51.910;7.724;2022-12-18T00:48:18;102336.81;;;-10.39;99.00
39265;BME280;42646;51.910;7.724;2022-12-18T00:50:47;102341.91;;;-10.42;98.96
39265;BME280;42646;51.910;7.724;2022-12-18T00:53:17;102336.69;;;-10.45;99.21
39265;BME280;42646;51.910;7.724;2022-12-18T00:55:46;102330.66;;;-10.47;98.83
39265;BME280;42646;51.910;7.724;2022-12-18T00:58:15;102327.97;;;-10.51;98.84
39265;BME280;42646;51.910;7.724;2022-12-18T01:00:43;102338.25;;;-10.52;98.74
39265;BME280;42646;51.910;7.724;2022-12-18T01:03:13;102338.22;;;-10.54;99.00
39265;BME280;42646;51.910;7.724;2022-12-18T01:05:42;102335.63;;;-10.55;99.05
39265;BME280;42646;51.910;7.724;2022-12-18T01:08:10;102329.56;;;-10.57;98.64
39265;BME280;42646;51.910;7.724;2022-12-18T01:10:42;102326.09;;;-10.59;98.82
39265;BME280;42646;51.910;7.724;2022-12-18T01:13:10;102330.28;;;-10.63;98.67
39265;BME280;42646;51.910;7.724;2022-12-18T01:15:37;102327.59;;;-10.67;99.01
39265;BME280;42646;51.910;7.724;2022-12-18T01:18:08;102322.41;;;-10.69;98.75
39265;BME280;42646;51.910;7.724;2022-12-18T01:20:38;102325.81;;;-10.71;98.82
39265;BME280;42646;51.910;7.724;2022-12-18T01:23:06;102321.50;;;-10.72;98.92
39265;BME280;42646;51.910;7.724;2022-12-18T01:25:35;102314.59;;;-10.73;98.68
39265;BME280;42646;51.910;7.724;2022-12-18T01:28:03;102317.09;;;-10.77;98.59
39265;BME280;42646;51.910;7.724;2022-12-18T01:30:34;102323.91;;;-10.79;98.69
39265;BME280;42646;51.910;7.724;2022-12-18T01:33:03;102317.81;;;-10.82;98.75
39265;BME280;42646;51.910;7.724;2022-12-18T01:35:31;102312.59;;;-10.85;98.91
39265;BME280;42646;51.910;7.724;2022-12-18T01:38:00;102313.41;;;-10.88;98.79
39265;BME280;42646;51.910;7.724;2022-12-18T01:40:28;102316.81;;;-10.89;98.71
39265;BME280;42646;51.910;7.724;2022-12-18T01:42:55;102321.91;;;-10.90;98.57
39265;BME280;42646;51.910;7.724;2022-12-18T01:45:25;102326.19;;;-10.91;98.81
39265;BME280;42646;51.910;7.724;2022-12-18T01:47:54;102323.56;;;-10.92;98.56
39265;BME280;42646;51.910;7.724;2022-12-18T01:50:23;102326.97;;;-10.93;98.65
39265;BME280;42646;51.910;7.724;2022-12-18T01:52:53;102323.50;;;-10.95;98.57
39265;BME280;42646;51.910;7.724;2022-12-18T01:55:23;102331.16;;;-10.97;98.71
39265;BME280;42646;51.910;7.724;2022-12-18T01:58:16;102329.41;;;-10.98;98.53
39265;BME280;42646;51.910;7.724;2022-12-18T02:00:45;102335.34;;;-11.02;98.22
39265;BME280;42646;51.910;7.724;2022-12-18T02:03:13;102342.09;;;-11.06;98.57
39265;BME280;42646;51.910;7.724;2022-12-18T02:05:46;102348.03;;;-11.08;98.27
39265;BME280;42646;51.910;7.724;2022-12-18T02:08:19;102343.66;;;-11.11;98.26
39265;BME280;42646;51.910;7.724;2022-12-18T02:10:51;102337.66;;;-11.11;98.29
39265;BME280;42646;51.910;7.724;2022-12-18T02:13:25;102329.06;;;-11.13;98.21
39265;BME280;42646;51.910;7.724;2022-12-18T02:15:57;102338.47;;;-11.14;98.00
39265;BME280;42646;51.910;7.724;2022-12-18T02:18:28;102335.84;;;-11.15;98.11
39265;BME280;42646;51.910;7.724;2022-12-18T02:21:00;102327.22;;;-11.17;98.06
39265;BME280;42646;51.910;7.724;2022-12-18T02:23:37;102319.50;;;-11.19;97.99
39265;BME280;42646;51.910;7.724;2022-12-18T02:26:13;102323.66;;;-11.22;98.17
39265;BME280;42646;51.910;7.724;2022-12-18T02:28:45;102319.34;;;-11.25;98.40
39265;BME280;42646;51.910;7.724;2022-12-18T02:31:15;102320.16;;;-11.26;98.24
39265;BME280;42646;51.910;7.724;2022-12-18T02:33:46;102309.91;;;-11.26;98.47
39265;BME280;42646;51.910;7.724;2022-12-18T02:36:15;102305.56;;;-11.27;98.05
39265;BME280;42646;51.910;7.724;2022-12-18T02:38:46;102299.53;;;-11.29;98.02
39265;BME280;42646;51.910;7.724;2022-12-18T02:41:17;102304.66;;;-11.29;98.16
39265;BME280;42646;51.910;7.724;2022-12-18T02:43:46;102308.91;;;-11.31;98.26
39265;BME280;42646;51.910;7.724;2022-12-18T02:46:28;102305.41;;;-11.33;98.04
39265;BME280;42646;51.910;7.724;2022-12-18T02:49:02;102314.81;;;-11.34;98.40
39265;BME280;42646;51.910;7.724;2022-12-18T02:51:36;102310.47;;;-11.36;98.02
39265;BME280;42646;51.910;7.724;2022-12-18T02:54:08;102300.97;;;-11.39;97.83
39265;BME280;42646;51.910;7.724;2022-12-18T02:56:40;102305.19;;;-11.42;98.13
39265;BME280;42646;51.910;7.724;2022-12-18T02:59:13;102314.53;;;-11.44;97.98
39265;BME280;42646;51.910;7.724;2022-12-18T03:01:49;102315.34;;;-11.45;98.12
39265;BME280;42646;51.910;7.724;2022-12-18T03:07:26;102315.31;;;-11.47;98.20
39265;BME280;42646;51.910;7.724;2022-12-18T03:09:56;102322.13;;;-11.49;97.99
39265;BME280;42646;51.910;7.724;2022-12-18T03:12:30;102305.84;;;-11.49;97.94
39265;BME280;42646;51.910;7.724;2022-12-18T03:15:02;102305.00;;;-11.50;97.75
39265;BME280;42646;51.910;7.724;2022-12-18T03:17:32;102294.72;;;-11.50;97.88
39265;BME280;42646;51.910;7.724;2022-12-18T03:20:02;102303.19;;;-11.52;98.13
39265;BME280;42646;51.910;7.724;2022-12-18T03:22:32;102303.16;;;-11.54;97.98
39265;BME280;42646;51.910;7.724;2022-12-18T03:25:03;102307.44;;;-11.54;98.11
39265;BME280;42646;51.910;7.724;2022-12-18T03:27:40;102302.28;;;-11.54;98.31
39265;BME280;42646;51.910;7.724;2022-12-18T03:30:35;102305.72;;;-11.54;98.14
39265;BME280;42646;51.910;7.724;2022-12-18T03:33:07;102313.44;;;-11.54;98.12
39265;BME280;42646;51.910;7.724;2022-12-18T03:35:38;102310.88;;;-11.54;98.19
39265;BME280;42646;51.910;7.724;2022-12-18T03:38:07;102310.00;;;-11.54;98.38
39265;BME280;42646;51.910;7.724;2022-12-18T03:40:45;102318.53;;;-11.55;98.29
39265;BME280;42646;51.910;7.724;2022-12-18T03:43:20;102322.81;;;-11.56;98.19
39265;BME280;42646;51.910;7.724;2022-12-18T03:46:00;102315.91;;;-11.57;98.14
39265;BME280;42646;51.910;7.724;2022-12-18T03:48:37;102321.00;;;-11.59;98.24
39265;BME280;42646;51.910;7.724;2022-12-18T03:51:11;102317.53;;;-11.61;98.23
39265;BME280;42646;51.910;7.724;2022-12-18T03:54:07;102317.47;;;-11.62;98.17
39265;BME280;42646;51.910;7.724;2022-12-18T03:56:42;102321.72;;;-11.63;98.44
39265;BME280;42646;51.910;7.724;2022-12-18T03:59:16;102313.16;;;-11.63;98.21
39265;BME280;42646;51.910;7.724;2022-12-18T04:01:45;102301.19;;;-11.63;98.30
39265;BME280;42646;51.910;7.724;2022-12-18T04:04:14;102309.78;;;-11.62;98.18
39265;BME280;42646;51.910;7.724;2022-12-18T04:06:43;102297.84;;;-11.62;98.08
39265;BME280;42646;51.910;7.724;2022-12-18T04:09:12;102296.91;;;-11.64;98.42
39265;BME280;42646;51.910;7.724;2022-12-18T04:11:44;102293.50;;;-11.63;98.26
39265;BME280;42646;51.910;7.724;2022-12-18T04:14:16;102295.19;;;-11.63;98.38
39265;BME280;42646;51.910;7.724;2022-12-18T04:16:47;102296.06;;;-11.63;98.43
39265;BME280;42646;51.910;7.724;2022-12-18T04:19:17;102299.56;;;-11.61;98.44
39265;BME280;42646;51.910;7.724;2022-12-18T04:21:49;102294.44;;;-11.61;98.42
39265;BME280;42646;51.910;7.724;2022-12-18T04:24:17;102302.16;;;-11.59;98.47
39265;BME280;42646;51.910;7.724;2022-12-18T04:27:21;102297.91;;;-11.59;98.81
39265;BME280;42646;51.910;7.724;2022-12-18T04:29:51;102302.19;;;-11.58;98.50
39265;BME280;42646;51.910;7.724;2022-12-18T04:32:18;102298.78;;;-11.57;98.90
39265;BME280;42646;51.910;7.724;2022-12-18T04:34:47;102288.50;;;-11.58;98.57
39265;BME280;42646;51.910;7.724;2022-12-18T04:37:14;102294.47;;;-11.59;98.69
39265;BME280;42646;51.910;7.724;2022-12-18T04:39:43;102289.28;;;-11.61;98.79
39265;BME280;42646;51.910;7.724;2022-12-18T04:42:19;102289.22;;;-11.62;98.76
39265;BME280;42646;51.910;7.724;2022-12-18T04:44:46;102282.38;;;-11.63;98.63
39265;BME280;42646;51.910;7.724;2022-12-18T04:47:17;102285.78;;;-11.63;98.64
39265;BME280;42646;51.910;7.724;2022-12-18T04:49:45;102289.22;;;-11.62;98.70
39265;BME280;42646;51.910;7.724;2022-12-18T04:52:15;102295.25;;;-11.62;98.73
39265;BME280;42646;51.910;7.724;2022-12-18T04:54:43;102292.72;;;-11.60;98.85
39265;BME280;42646;51.910;7.724;2022-12-18T04:57:16;102279.91;;;-11.60;99.05
39265;BME280;42646;51.910;7.724;2022-12-18T05:00:10;102279.16;;;-11.56;98.84
39265;BME280;42646;51.910;7.724;2022-12-18T05:02:39;102275.78;;;-11.53;98.77
39265;BME280;42646;51.910;7.724;2022-12-18T05:05:07;102272.38;;;-11.52;98.94
39265;BME280;42646;51.910;7.724;2022-12-18T05:07:34;102269.84;;;-11.51;99.27
39265;BME280;42646;51.910;7.724;2022-12-18T05:10:04;102275.06;;;-11.49;99.50
39265;BME280;42646;51.910;7.724;2022-12-18T05:12:34;102275.06;;;-11.49;99.27
39265;BME280;42646;51.910;7.724;2022-12-18T05:15:23;102287.03;;;-11.50;99.37
39265;BME280;42646;51.910;7.724;2022-12-18T05:17:53;102286.13;;;-11.50;99.41
39265;BME280;42646;51.910;7.724;2022-12-18T05:20:21;102286.19;;;-11.49;99.43
39265;BME280;42646;51.910;7.724;2022-12-18T05:22:49;102283.63;;;-11.49;99.59
39265;BME280;42646;51.910;7.724;2022-12-18T05:25:18;102274.25;;;-11.47;99.49
39265;BME280;42646;51.910;7.724;2022-12-18T05:27:47;102274.28;;;-11.45;99.53
39265;BME280;42646;51.910;7.724;2022-12-18T05:30:15;102276.91;;;-11.44;99.63
39265;BME280;42646;51.910;7.724;2022-12-18T05:32:44;102280.38;;;-11.42;99.76
39265;BME280;42646;51.910;7.724;2022-12-18T05:35:15;102282.94;;;-11.42;99.57
39265;BME280;42646;51.910;7.724;2022-12-18T05:37:42;102285.53;;;-11.40;99.68
39265;BME280;42646;51.910;7.724;2022-12-18T05:40:12;102285.53;;;-11.40;99.86
39265;BME280;42646;51.910;7.724;2022-12-18T05:42:40;102289.78;;;-11.42;99.70
39265;BME280;42646;51.910;7.724;2022-12-18T05:45:08;102302.66;;;-11.41;99.68
39265;BME280;42646;51.910;7.724;2022-12-18T05:47:37;102291.47;;;-11.43;99.96
39265;BME280;42646;51.910;7.724;2022-12-18T05:50:06;102291.47;;;-11.43;99.82
39265;BME280;42646;51.910;7.724;2022-12-18T05:52:37;102287.19;;;-11.44;99.91
39265;BME280;42646;51.910;7.724;2022-12-18T05:55:04;102275.22;;;-11.43;99.71
39265;BME280;42646;51.910;7.724;2022-12-18T05:57:32;102272.66;;;-11.42;99.58
39265;BME280;42646;51.910;7.724;2022-12-18T05:59:59;102278.69;;;-11.40;99.67
39265;BME280;42646;51.910;7.724;2022-12-18T06:02:37;102277.84;;;-11.40;99.60
39265;BME280;42646;51.910;7.724;2022-12-18T06:05:34;102288.97;;;-11.40;99.58
39265;BME280;42646;51.910;7.724;2022-12-18T06:08:04;102289.84;;;-11.39;99.61
39265;BME280;42646;51.910;7.724;2022-12-18T06:10:32;102292.41;;;-11.39;99.94
39265;BME280;42646;51.910;7.724;2022-12-18T06:13:00;102299.31;;;-11.38;99.79
39265;BME280;42646;51.910;7.724;2022-12-18T06:15:27;102294.22;;;-11.37;99.91
39265;BME280;42646;51.910;7.724;2022-12-18T06:17:55;102296.84;;;-11.34;99.76
39265;BME280;42646;51.910;7.724;2022-12-18T06:20:22;102301.09;;;-11.34;99.90
39265;BME280;42646;51.910;7.724;2022-12-18T06:22:58;102308.03;;;-11.32;100.00
39265;BME280;42646;51.910;7.724;2022-12-18T06:25:27;102305.50;;;-11.30;99.96
39265;BME280;42646;51.910;7.724;2022-12-18T06:27:55;102317.53;;;-11.27;100.00
39265;BME280;42646;51.910;7.724;2022-12-18T06:30:22;102315.84;;;-11.27;100.00
39265;BME280;42646;51.910;7.724;2022-12-18T06:32:50;102313.38;;;-11.24;100.00
39265;BME280;42646;51.910;7.724;2022-12-18T06:35:22;102324.50;;;-11.23;100.00
39265;BME280;42646;51.910;7.724;2022-12-18T06:37:50;102324.53;;;-11.22;100.00
39265;BME280;42646;51.910;7.724;2022-12-18T06:40:17;102327.97;;;-11.21;100.00
39265;BME280;42646;51.910;7.724;2022-12-18T06:42:46;102323.69;;;-11.21;100.00
39265;BME280;42646;51.910;7.724;2022-12-18T06:45:14;102323.75;;;-11.19;100.00
39265;BME280;42646;51.910;7.724;2022-12-18T06:47:43;102310.94;;;-11.18;100.00
39265;BME280;42646;51.910;7.724;2022-12-18T06:50:10;102308.44;;;-11.15;100.00
39265;BME280;42646;51.910;7.724;2022-12-18T06:52:38;102315.34;;;-11.14;100.00
39265;BME280;42646;51.910;7.724;2022-12-18T06:55:06;102312.81;;;-11.12;100.00
39265;BME280;42646;51.910;7.724;2022-12-18T06:57:35;102327.38;;;-11.11;100.00
39265;BME280;42646;51.910;7.724;2022-12-18T07:00:05;102314.56;;;-11.10;100.00
39265;BME280;42646;51.910;7.724;2022-12-18T07:02:33;102319.72;;;-11.10;100.00
39265;BME280;42646;51.910;7.724;2022-12-18T07:05:01;102325.72;;;-11.09;100.00
39265;BME280;42646;51.910;7.724;2022-12-18T07:07:36;102319.72;;;-11.10;100.00
39265;BME280;42646;51.910;7.724;2022-12-18T07:10:03;102317.22;;;-11.07;100.00
39265;BME280;42646;51.910;7.724;2022-12-18T07:12:33;102319.84;;;-11.04;100.00
39265;BME280;42646;51.910;7.724;2022-12-18T07:15:02;102312.28;;;-10.99;100.00
39265;BME280;42646;51.910;7.724;2022-12-18T07:17:32;102314.13;;;-10.93;100.00
39265;BME280;42646;51.910;7.724;2022-12-18T07:19:59;102310.03;;;-10.85;100.00
39265;BME280;42646;51.910;7.724;2022-12-18T07:22:27;102304.97;;;-10.82;100.00
39265;BME280;42646;51.910;7.724;2022-12-18T07:24:55;102312.81;;;-10.78;100.00
39265;BME280;42646;51.910;7.724;2022-12-18T07:27:22;102306.94;;;-10.72;100.00
39265;BME280;42646;51.910;7.724;2022-12-18T07:29:50;102318.22;;;-10.67;100.00
39265;BME280;42646;51.910;7.724;2022-12-18T07:32:19;102306.28;;;-10.63;100.00
39265;BME280;42646;51.910;7.724;2022-12-18T07:34:48;102298.66;;;-10.59;100.00
39265;BME280;42646;51.910;7.724;2022-12-18T07:37:15;102302.19;;;-10.55;100.00
39265;BME280;42646;51.910;7.724;2022-12-18T07:39:43;102298.00;;;-10.50;100.00
39265;BME280;42646;51.910;7.724;2022-12-18T07:42:11;102300.69;;;-10.45;100.00
39265;BME280;42646;51.910;7.724;2022-12-18T07:44:58;102297.38;;;-10.40;100.00
39265;BME280;42646;51.910;7.724;2022-12-18T07:47:27;102294.03;;;-10.36;100.00
39265;BME280;42646;51.910;7.724;2022-12-18T07:49:57;102291.63;;;-10.28;100.00
39265;BME280;42646;51.910;7.724;2022-12-18T07:52:27;102279.72;;;-10.22;100.00
39265;BME280;42646;51.910;7.724;2022-12-18T07:54:55;102282.41;;;-10.17;100.00
39265;BME280;42646;51.910;7.724;2022-12-18T07:57:25;102273.06;;;-10.12;100.00
39265;BME280;42646;51.910;7.724;2022-12-18T08:00:14;102279.25;;;-10.04;100.00
39265;BME280;42646;51.910;7.724;2022-12-18T08:02:42;102279.34;;;-9.98;100.00
39265;BME280;42646;51.910;7.724;2022-12-18T08:05:11;102279.53;;;-9.90;100.00
39265;BME280;42646;51.910;7.724;2022-12-18T08:07:39;102278.84;;;-9.80;100.00
39265;BME280;42646;51.910;7.724;2022-12-18T08:10:07;102282.47;;;-9.70;100.00
39265;BME280;42646;51.910;7.724;2022-12-18T08:12:34;102286.09;;;-9.60;100.00
39265;BME280;42646;51.910;7.724;2022-12-18T08:15:02;102282.84;;;-9.50;100.00
39265;BME280;42646;51.910;7.724;2022-12-18T08:17:55;102281.34;;;-9.37;100.00
39265;BME280;42646;51.910;7.724;2022-12-18T08:20:24;102280.66;;;-9.29;100.00
39265;BME280;42646;51.910;7.724;2022-12-18T08:22:52;102280.00;;;-9.19;100.00
39265;BME280;42646;51.910;7.724;2022-12-18T08:25:20;102289.56;;;-9.10;100.00
39265;BME280;42646;51.910;7.724;2022-12-18T08:27:47;102279.38;;;-9.02;100.00
39265;BME280;42646;51.910;7.724;2022-12-18T08:30:16;102281.25;;;-8.94;100.00
39265;BME280;42646;51.910;7.724;2022-12-18T08:32:45;102283.97;;;-8.84;100.00
39265;BME280;42646;51.910;7.724;2022-12-18T08:35:14;102266.88;;;-8.78;100.00
39265;BME280;42646;51.910;7.724;2022-12-18T08:37:45;102267.91;;;-8.67;100.00
39265;BME280;42646;51.910;7.724;2022-12-18T08:40:13;102262.88;;;-8.57;100.00
39265;BME280;42646;51.910;7.724;2022-12-18T08:42:41;102256.16;;;-8.46;100.00
39265;BME280;42646;51.910;7.724;2022-12-18T08:45:27;102247.69;;;-8.36;100.00
39265;BME280;42646;51.910;7.724;2022-12-18T08:47:54;102239.19;;;-8.24;100.00
39265;BME280;42646;51.910;7.724;2022-12-18T08:50:23;102235.88;;;-8.16;100.00
39265;BME280;42646;51.910;7.724;2022-12-18T08:52:52;102240.25;;;-8.07;100.00
39265;BME280;42646;51.910;7.724;2022-12-18T08:55:20;102242.91;;;-8.01;100.00
39265;BME280;42646;51.910;7.724;2022-12-18T08:57:48;102237.00;;;-7.94;100.00
39265;BME280;42646;51.910;7.724;2022-12-18T09:00:18;102241.38;;;-7.87;100.00
39265;BME280;42646;51.910;7.724;2022-12-18T09:02:47;102235.47;;;-7.76;100.00
39265;BME280;42646;51.910;7.724;2022-12-18T09:05:16;102239.91;;;-7.65;100.00
39265;BME280;42646;51.910;7.724;2022-12-18T09:07:43;102234.78;;;-7.57;100.00
39265;BME280;42646;51.910;7.724;2022-12-18T09:10:13;102234.88;;;-7.49;100.00
39265;BME280;42646;51.910;7.724;2022-12-18T09:12:42;102230.63;;;-7.43;100.00
39265;BME280;42646;51.910;7.724;2022-12-18T09:15:10;102231.53;;;-7.36;100.00
39265;BME280;42646;51.910;7.724;2022-12-18T09:17:38;102234.16;;;-7.30;100.00
39265;BME280;42646;51.910;7.724;2022-12-18T09:20:06;102231.66;;;-7.22;100.00
39265;BME280;42646;51.910;7.724;2022-12-18T09:22:34;102225.66;;;-7.18;100.00
39265;BME280;42646;51.910;7.724;2022-12-18T09:25:02;102230.00;;;-7.14;100.00
39265;BME280;42646;51.910;7.724;2022-12-18T09:27:35;102235.22;;;-7.08;100.00
39265;BME280;42646;51.910;7.724;2022-12-18T09:30:03;102246.47;;;-7.02;100.00
39265;BME280;42646;51.910;7.724;2022-12-18T09:32:32;102249.09;;;-6.95;100.00
39265;BME280;42646;51.910;7.724;2022-12-18T09:35:00;102255.22;;;-6.86;100.00
39265;BME280;42646;51.910;7.724;2022-12-18T09:37:28;102252.69;;;-6.77;100.00
39265;BME280;42646;51.910;7.724;2022-12-18T09:39:56;102242.41;;;-6.66;100.00
39265;BME280;42646;51.910;7.724;2022-12-18T09:42:24;102249.38;;;-6.54;100.00
39265;BME280;42646;51.910;7.724;2022-12-18T09:44:53;102251.19;;;-6.44;100.00
39265;BME280;42646;51.910;7.724;2022-12-18T09:47:22;102246.03;;;-6.35;100.00
39265;BME280;42646;51.910;7.724;2022-12-18T09:49:52;102241.78;;;-6.28;100.00
39265;BME280;42646;51.910;7.724;2022-12-18T09:52:25;102241.81;;;-6.21;100.00
39265;BME280;42646;51.910;7.724;2022-12-18T09:54:55;102244.41;;;-6.11;100.00
39265;BME280;42646;51.910;7.724;2022-12-18T09:57:28;102241.88;;;-6.01;100.00
39265;BME280;42646;51.910;7.724;2022-12-18T10:00:02;102237.59;;;-5.91;100.00
39265;BME280;42646;51.910;7.724;2022-12-18T10:02:36;102219.44;;;-5.82;100.00
39265;BME280;42646;51.910;7.724;2022-12-18T10:05:06;102206.53;;;-5.74;100.00
39265;BME280;42646;51.910;7.724;2022-12-18T10:07:42;102207.38;;;-5.65;100.00
39265;BME280;42646;51.910;7.724;2022-12-18T10:10:16;102192.72;;;-5.56;100.00
39265;BME280;42646;51.910;7.724;2022-12-18T10:12:49;102196.16;;;-5.48;100.00
39265;BME280;42646;51.910;7.724;2022-12-18T10:15:31;102203.09;;;-5.38;100.00
39265;BME280;42646;51.910;7.724;2022-12-18T10:18:03;102188.38;;;-5.28;100.00
39265;BME280;42646;51.910;7.724;2022-12-18T10:20:34;102185.81;;;-5.19;100.00
39265;BME280;42646;51.910;7.724;2022-12-18T10:23:08;102178.88;;;-5.13;100.00
39265;BME280;42646;51.910;7.724;2022-12-18T10:25:40;102176.25;;;-5.05;100.00
39265;BME280;42646;51.910;7.724;2022-12-18T10:28:10;102179.72;;;-4.95;100.00
39265;BME280;42646;51.910;7.724;2022-12-18T10:30:41;102172.78;;;-4.89;100.00
39265;BME280;42646;51.910;7.724;2022-12-18T10:33:10;102169.31;;;-4.80;100.00
39265;BME280;42646;51.910;7.724;2022-12-18T10:35:38;102164.09;;;-4.72;100.00
39265;BME280;42646;51.910;7.724;2022-12-18T10:38:20;102159.75;;;-4.66;100.00
39265;BME280;42646;51.910;7.724;2022-12-18T10:40:51;102151.06;;;-4.59;100.00
39265;BME280;42646;51.910;7.724;2022-12-18T10:43:20;102146.72;;;-4.49;100.00
39265;BME280;42646;51.910;7.724;2022-12-18T10:48:54;102146.66;;;-4.37;100.00
39265;BME280;42646;51.910;7.724;2022-12-18T10:51:23;102140.53;;;-4.28;100.00
39265;BME280;42646;51.910;7.724;2022-12-18T10:53:53;102128.41;;;-4.23;100.00
39265;BME280;42646;51.910;7.724;2022-12-18T10:56:21;102118.84;;;-4.18;100.00
39265;BME280;42646;51.910;7.724;2022-12-18T10:59:15;102104.06;;;-4.10;100.00
39265;BME280;42646;51.910;7.724;2022-12-18T11:01:48;102103.16;;;-4.04;100.00
39265;BME280;42646;51.910;7.724;2022-12-18T11:04:18;102103.13;;;-3.98;100.00
39265;BME280;42646;51.910;7.724;2022-12-18T11:06:56;102105.66;;;-3.92;100.00
39265;BME280;42646;51.910;7.724;2022-12-18T11:09:24;102093.53;;;-3.88;100.00
39265;BME280;42646;51.910;7.724;2022-12-18T11:11:53;102092.56;;;-3.80;100.00
39265;BME280;42646;51.910;7.724;2022-12-18T11:14:24;102100.34;;;-3.72;100.00
39265;BME280;42646;51.910;7.724;2022-12-18T11:16:52;102101.13;;;-3.64;100.00
39265;BME280;42646;51.910;7.724;2022-12-18T11:19:43;102101.09;;;-3.58;100.00
39265;BME280;42646;51.910;7.724;2022-12-18T11:22:19;102101.03;;;-3.52;100.00
39265;BME280;42646;51.910;7.724;2022-12-18T11:24:52;102095.78;;;-3.47;100.00
39265;BME280;42646;51.910;7.724;2022-12-18T11:27:40;102091.38;;;-3.40;100.00
39265;BME280;42646;51.910;7.724;2022-12-18T11:30:08;102086.16;;;-3.36;100.00
39265;BME280;42646;51.910;7.724;2022-12-18T11:32:37;102077.44;;;-3.32;100.00
39265;BME280;42646;51.910;7.724;2022-12-18T11:35:12;102071.31;;;-3.26;100.00
39265;BME280;42646;51.910;7.724;2022-12-18T11:37:43;102060.84;;;-3.22;100.00
39265;BME280;42646;51.910;7.724;2022-12-18T11:40:14;102052.97;;;-3.15;100.00
39265;BME280;42646;51.910;7.724;2022-12-18T11:42:45;102059.84;;;-3.10;100.00
39265;BME280;42646;51.910;7.724;2022-12-18T11:45:24;102054.59;;;-3.05;100.00
39265;BME280;42646;51.910;7.724;2022-12-18T11:47:55;102052.78;;;-2.99;100.00
39265;BME280;42646;51.910;7.724;2022-12-18T11:50:26;102051.00;;;-2.97;100.00
39265;BME280;42646;51.910;7.724;2022-12-18T11:52:55;102052.72;;;-2.92;100.00
39265;BME280;42646;51.910;7.724;2022-12-18T11:55:33;102037.88;;;-2.86;100.00
39265;BME280;42646;51.910;7.724;2022-12-18T11:58:08;102043.06;;;-2.83;100.00
39265;BME280;42646;51.910;7.724;2022-12-18T12:00:40;102029.97;;;-2.78;100.00
39265;BME280;42646;51.910;7.724;2022-12-18T12:03:18;102036.84;;;-2.73;100.00
39265;BME280;42646;51.910;7.724;2022-12-18T12:05:55;102036.78;;;-2.68;100.00
39265;BME280;42646;51.910;7.724;2022-12-18T12:08:29;102039.34;;;-2.65;100.00
39265;BME280;42646;51.910;7.724;2022-12-18T12:11:03;102020.13;;;-2.55;100.00
39265;BME280;42646;51.910;7.724;2022-12-18T12:13:40;102016.63;;;-2.54;100.00
39265;BME280;42646;51.910;7.724;2022-12-18T12:16:35;102007.91;;;-2.51;100.00
39265;BME280;42646;51.910;7.724;2022-12-18T12:19:10;102007.88;;;-2.48;100.00
39265;BME280;42646;51.910;7.724;2022-12-18T12:21:44;102012.97;;;-2.44;100.00
39265;BME280;42646;51.910;7.724;2022-12-18T12:24:21;102010.28;;;-2.37;100.00
39265;BME280;42646;51.910;7.724;2022-12-18T12:26:53;102011.19;;;-2.37;100.00
39265;BME280;42646;51.910;7.724;2022-12-18T12:29:26;102016.28;;;-2.32;100.00
39265;BME280;42646;51.910;7.724;2022-12-18T12:32:03;102005.84;;;-2.29;100.00
39265;BME280;42646;51.910;7.724;2022-12-18T12:34:34;102005.69;;;-2.20;100.00
39265;BME280;42646;51.910;7.724;2022-12-18T12:37:15;102008.31;;;-2.22;100.00
39265;BME280;42646;51.910;7.724;2022-12-18T12:39:47;101991.78;;;-2.21;100.00
39265;BME280;42646;51.910;7.724;2022-12-18T12:42:16;101982.97;;;-2.13;100.00
39265;BME280;42646;51.910;7.724;2022-12-18T12:45:06;101965.63;;;-2.15;100.00
39265;BME280;42646;51.910;7.724;2022-12-18T12:47:41;101965.59;;;-2.11;100.00
39265;BME280;42646;51.910;7.724;2022-12-18T12:50:13;101956.84;;;-2.07;100.00
39265;BME280;42646;51.910;7.724;2022-12-18T12:52:45;101952.41;;;-2.04;100.00
39265;BME280;42646;51.910;7.724;2022-12-18T12:55:16;101943.69;;;-2.03;100.00
39265;BME280;42646;51.910;7.724;2022-12-18T12:57:48;101948.03;;;-2.00;100.00
39265;BME280;42646;51.910;7.724;2022-12-18T13:00:21;101945.38;;;-1.99;100.00
39265;BME280;42646;51.910;7.724;2022-12-18T13:02:51;101940.97;;;-1.97;100.00
39265;BME280;42646;51.910;7.724;2022-12-18T13:05:24;101942.66;;;-1.93;100.00